createdAt,value
2023-03-02T00:00:16.054Z,29.55
2023-03-02T00:02:45.193Z,27.83
2023-03-02T00:05:14.506Z,29.83
2023-03-02T00:07:43.875Z,29.48
2023-03-02T00:10:12.602Z,29.88
2023-03-02T00:12:40.335Z,29.77
2023-03-02T00:15:09.362Z,31.60
2023-03-02T00:17:37.245Z,30.45
2023-03-02T00:20:09.993Z,30.25
2023-03-02T00:22:37.946Z,31.85
2023-03-02T00:25:08.705Z,31.25
2023-03-02T00:27:36.944Z,30.17
2023-03-02T00:30:05.120Z,31.45
2023-03-02T00:32:32.899Z,29.98
2023-03-02T00:35:00.862Z,28.83
2023-03-02T00:37:28.628Z,29.23
2023-03-02T00:39:56.452Z,27.02
2023-03-02T00:42:25.577Z,27.20
2023-03-02T00:44:53.906Z,26.17
2023-03-02T00:47:21.625Z,27.20
2023-03-02T00:49:49.639Z,27.05
2023-03-02T00:52:20.406Z,28.08
2023-03-02T00:54:48.179Z,30.25
2023-03-02T00:57:16.032Z,28.30
2023-03-02T00:59:45.197Z,31.25
2023-03-02T01:02:15.360Z,30.45
2023-03-02T01:04:44.737Z,30.50
2023-03-02T01:07:14.850Z,30.17
2023-03-02T01:09:44.232Z,31.40
2023-03-02T01:12:12.954Z,34.72
2023-03-02T01:14:42.648Z,30.63
2023-03-02T01:17:13.039Z,30.80
2023-03-02T01:19:43.091Z,30.73
2023-03-02T01:22:11.026Z,30.20
2023-03-02T01:24:38.819Z,29.17
2023-03-02T01:27:08.052Z,29.65
2023-03-02T01:29:35.871Z,29.13
2023-03-02T01:32:03.762Z,28.65
2023-03-02T01:34:33.285Z,29.65
2023-03-02T01:37:01.055Z,29.48
2023-03-02T01:39:28.859Z,29.50
2023-03-02T01:41:56.632Z,28.92
2023-03-02T01:44:39.493Z,29.65
2023-03-02T01:47:13.990Z,31.00
2023-03-02T01:49:47.551Z,29.83
2023-03-02T01:52:16.623Z,30.77
2023-03-02T01:54:49.905Z,29.27
2023-03-02T01:57:22.960Z,30.42
2023-03-02T01:59:58.149Z,30.48
2023-03-02T02:02:26.439Z,32.33
2023-03-02T02:04:59.999Z,31.70
2023-03-02T02:07:30.317Z,30.98
2023-03-02T02:09:58.555Z,30.55
2023-03-02T02:12:26.306Z,31.33
2023-03-02T02:14:57.952Z,31.88
2023-03-02T02:17:26.299Z,32.55
2023-03-02T02:20:07.861Z,32.05
2023-03-02T02:22:50.780Z,33.10
2023-03-02T02:25:27.548Z,30.50
2023-03-02T02:27:58.252Z,31.25
2023-03-02T02:30:27.305Z,33.05
2023-03-02T02:32:56.499Z,32.05
2023-03-02T02:35:28.390Z,33.38
2023-03-02T02:38:02.944Z,32.95
2023-03-02T02:40:44.269Z,34.03
2023-03-02T02:43:18.405Z,33.17
2023-03-02T02:45:47.332Z,33.05
2023-03-02T02:48:17.466Z,31.65
2023-03-02T02:50:47.289Z,34.53
2023-03-02T02:53:19.338Z,33.25
2023-03-02T02:55:49.891Z,32.83
2023-03-02T02:58:31.318Z,34.13
2023-03-02T03:01:00.542Z,32.50
2023-03-02T03:03:30.901Z,32.35
2023-03-02T03:05:59.874Z,31.63
2023-03-02T03:08:53.807Z,31.13
2023-03-02T03:11:27.375Z,33.60
2023-03-02T03:14:09.465Z,32.03
2023-03-02T03:16:39.528Z,31.13
2023-03-02T03:19:13.072Z,31.98
2023-03-02T03:21:43.142Z,32.92
2023-03-02T03:24:11.261Z,33.42
2023-03-02T03:26:40.306Z,34.50
2023-03-02T03:29:09.528Z,33.15
2023-03-02T03:31:37.240Z,35.00
2023-03-02T03:34:05.827Z,33.47
2023-03-02T03:36:34.841Z,35.90
2023-03-02T03:39:05.655Z,34.08
2023-03-02T03:41:33.900Z,33.88
2023-03-02T03:44:01.951Z,33.85
2023-03-02T03:46:35.073Z,34.80
2023-03-02T03:49:05.876Z,35.30
2023-03-02T03:51:35.513Z,35.92
2023-03-02T03:54:04.222Z,35.35
2023-03-02T03:56:34.964Z,34.78
2023-03-02T03:59:07.373Z,34.05
2023-03-02T04:01:38.781Z,34.03
2023-03-02T04:04:10.557Z,32.55
2023-03-02T04:06:41.575Z,33.13
2023-03-02T04:09:12.342Z,36.45
2023-03-02T04:11:43.032Z,33.85
2023-03-02T04:14:11.064Z,35.60
2023-03-02T04:16:40.881Z,35.78
2023-03-02T04:19:10.329Z,35.60
2023-03-02T04:21:41.308Z,36.70
2023-03-02T04:24:10.954Z,36.38
2023-03-02T04:26:40.696Z,33.45
2023-03-02T04:29:08.997Z,34.95
2023-03-02T04:31:37.587Z,34.47
2023-03-02T04:34:07.667Z,33.97
2023-03-02T04:36:39.267Z,33.67
2023-03-02T04:39:10.084Z,33.22
2023-03-02T04:41:37.965Z,33.00
2023-03-02T04:44:06.079Z,33.42
2023-03-02T04:46:35.227Z,33.13
2023-03-02T04:49:04.291Z,32.85
2023-03-02T04:51:36.449Z,32.10
2023-03-02T04:54:07.639Z,33.17
2023-03-02T04:56:36.118Z,33.45
2023-03-02T04:59:03.938Z,32.88
2023-03-02T05:01:32.855Z,33.67
2023-03-02T05:04:02.794Z,35.28
2023-03-02T05:06:30.958Z,35.15
2023-03-02T05:09:00.577Z,34.72
2023-03-02T05:11:29.073Z,35.80
2023-03-02T05:13:58.735Z,34.63
2023-03-02T05:16:29.560Z,33.53
2023-03-02T05:18:57.541Z,32.97
2023-03-02T05:21:25.775Z,34.53
2023-03-02T05:23:54.168Z,34.83
2023-03-02T05:26:23.328Z,33.97
2023-03-02T05:28:53.932Z,34.83
2023-03-02T05:31:24.279Z,34.80
2023-03-02T05:33:52.052Z,35.20
2023-03-02T05:36:23.486Z,34.58
2023-03-02T05:38:51.606Z,33.58
2023-03-02T05:41:19.418Z,35.42
2023-03-02T05:43:48.621Z,33.58
2023-03-02T05:46:17.498Z,36.53
2023-03-02T05:48:45.378Z,35.10
2023-03-02T05:51:13.410Z,33.70
2023-03-02T05:53:41.144Z,33.92
2023-03-02T05:56:09.589Z,33.83
2023-03-02T05:58:39.449Z,35.28
2023-03-02T06:01:13.646Z,34.03
2023-03-02T06:03:45.720Z,36.08
2023-03-02T06:06:14.565Z,35.08
2023-03-02T06:08:44.542Z,35.88
2023-03-02T06:11:13.212Z,37.58
2023-03-02T06:13:41.346Z,35.90
2023-03-02T06:16:11.017Z,36.88
2023-03-02T06:18:41.486Z,35.97
2023-03-02T06:21:09.934Z,35.42
2023-03-02T06:23:37.650Z,34.75
2023-03-02T06:26:09.266Z,34.15
2023-03-02T06:28:49.781Z,32.22
2023-03-02T06:31:21.048Z,34.40
2023-03-02T06:33:50.904Z,33.33
2023-03-02T06:36:18.725Z,35.67
2023-03-02T06:38:46.396Z,34.05
2023-03-02T06:41:14.079Z,35.38
2023-03-02T06:43:43.487Z,34.53
2023-03-02T06:46:11.308Z,35.85
2023-03-02T06:48:40.396Z,34.95
2023-03-02T06:51:08.245Z,34.75
2023-03-02T06:53:35.955Z,35.97
2023-03-02T06:56:03.652Z,35.53
2023-03-02T06:58:31.335Z,32.72
2023-03-02T07:00:59.109Z,34.30
2023-03-02T07:03:27.098Z,33.67
2023-03-02T07:05:56.620Z,32.67
2023-03-02T07:08:24.293Z,33.60
2023-03-02T07:10:52.037Z,35.03
2023-03-02T07:13:19.780Z,34.28
2023-03-02T07:15:47.622Z,31.85
2023-03-02T07:18:15.341Z,32.13
2023-03-02T07:20:43.089Z,33.60
2023-03-02T07:23:12.145Z,35.03
2023-03-02T07:25:39.866Z,36.75
2023-03-02T07:28:07.618Z,37.42
2023-03-02T07:30:35.487Z,39.28
2023-03-02T07:33:03.187Z,37.30
2023-03-02T07:35:31.056Z,37.35
2023-03-02T07:37:58.757Z,37.63
2023-03-02T07:40:27.817Z,38.80
2023-03-02T07:42:55.572Z,37.13
2023-03-02T07:45:24.978Z,38.50
2023-03-02T07:47:52.994Z,35.67
2023-03-02T07:50:20.894Z,39.30
2023-03-02T07:52:48.621Z,38.47
2023-03-02T07:55:16.369Z,37.42
2023-03-02T07:57:45.425Z,37.47
2023-03-02T08:00:14.050Z,35.83
2023-03-02T08:02:44.533Z,37.25
2023-03-02T08:05:14.172Z,34.72
2023-03-02T08:07:42.286Z,35.85
2023-03-02T08:10:13.125Z,34.70
2023-03-02T08:12:42.837Z,33.97
2023-03-02T08:15:13.286Z,33.55
2023-03-02T08:17:41.111Z,32.60
2023-03-02T08:20:09.858Z,31.85
2023-03-02T08:22:37.675Z,32.58
2023-03-02T08:25:07.297Z,32.08
2023-03-02T08:27:35.072Z,32.90
2023-03-02T08:30:05.133Z,31.15
2023-03-02T08:32:35.315Z,30.67
2023-03-02T08:35:03.412Z,29.35
2023-03-02T08:37:31.254Z,30.70
2023-03-02T08:39:59.044Z,29.95
2023-03-02T08:42:26.795Z,30.60
2023-03-02T08:44:54.513Z,27.95
2023-03-02T08:47:22.305Z,29.20
2023-03-02T08:49:51.744Z,28.48
2023-03-02T08:52:19.463Z,29.48
2023-03-02T08:54:47.701Z,29.35
2023-03-02T08:57:15.399Z,29.33
2023-03-02T08:59:45.137Z,28.35
2023-03-02T09:02:13.181Z,28.60
2023-03-02T09:04:41.179Z,29.42
2023-03-02T09:07:10.776Z,28.13
2023-03-02T09:09:38.490Z,29.00
2023-03-02T09:12:06.437Z,28.63
2023-03-02T09:14:34.269Z,27.48
2023-03-02T09:17:02.081Z,27.27
2023-03-02T09:19:29.816Z,27.92
2023-03-02T09:21:57.641Z,28.55
2023-03-02T09:24:26.795Z,29.30
2023-03-02T09:26:54.970Z,28.55
2023-03-02T09:29:22.685Z,28.63
2023-03-02T09:31:50.436Z,28.27
2023-03-02T09:34:18.209Z,27.67
2023-03-02T09:36:46.058Z,29.42
2023-03-02T09:39:14.073Z,27.42
2023-03-02T09:42:17.422Z,26.85
2023-03-02T09:45:23.771Z,27.13
2023-03-02T09:48:00.190Z,27.42
2023-03-02T09:50:32.155Z,26.70
2023-03-02T09:53:25.450Z,27.38
2023-03-02T09:55:59.031Z,27.13
2023-03-02T09:58:33.117Z,25.02
2023-03-02T10:01:04.404Z,25.13
2023-03-02T10:03:39.808Z,25.60
2023-03-02T10:06:07.738Z,25.88
2023-03-02T10:08:40.905Z,26.85
2023-03-02T10:11:17.924Z,25.25
2023-03-02T10:13:50.556Z,24.58
2023-03-02T10:16:32.048Z,25.13
2023-03-02T10:19:07.482Z,23.77
2023-03-02T10:21:40.194Z,24.02
2023-03-02T10:24:17.565Z,23.95
2023-03-02T10:26:48.235Z,24.70
2023-03-02T10:29:33.825Z,25.02
2023-03-02T10:32:11.647Z,24.13
2023-03-02T10:34:39.715Z,23.67
2023-03-02T10:37:13.147Z,23.33
2023-03-02T10:39:40.945Z,23.58
2023-03-02T10:42:14.102Z,22.95
2023-03-02T10:44:48.799Z,24.23
2023-03-02T10:47:25.396Z,23.60
2023-03-02T10:49:54.259Z,22.10
2023-03-02T10:52:23.637Z,22.77
2023-03-02T10:55:02.207Z,21.27
2023-03-02T10:57:37.732Z,21.50
2023-03-02T11:02:50.786Z,22.38
2023-03-02T11:07:57.746Z,22.63
2023-03-02T11:10:29.077Z,21.13
2023-03-02T11:12:56.910Z,21.27
2023-03-02T11:15:29.575Z,21.80
2023-03-02T11:18:08.327Z,21.75
2023-03-02T11:20:39.750Z,22.33
2023-03-02T11:23:17.746Z,21.90
2023-03-02T11:25:50.474Z,20.05
2023-03-02T11:28:32.867Z,20.38
2023-03-02T11:31:03.744Z,20.23
2023-03-02T11:33:38.392Z,18.83
2023-03-02T11:36:13.548Z,18.67
2023-03-02T11:38:48.700Z,19.05
2023-03-02T11:41:29.735Z,20.08
2023-03-02T11:44:00.823Z,19.05
2023-03-02T11:46:33.702Z,19.02
2023-03-02T11:49:06.620Z,19.55
2023-03-02T11:51:37.824Z,17.85
2023-03-02T11:54:20.263Z,18.35
2023-03-02T11:56:48.136Z,18.63
2023-03-02T11:59:21.243Z,18.02
2023-03-02T12:01:59.641Z,16.88
2023-03-02T12:04:32.245Z,17.38
2023-03-02T12:07:00.819Z,18.08
2023-03-02T12:09:39.469Z,18.63
2023-03-02T12:12:32.960Z,19.20
2023-03-02T12:15:02.726Z,18.95
2023-03-02T12:17:36.585Z,17.50
2023-03-02T12:20:27.224Z,16.50
2023-03-02T12:22:55.973Z,16.70
2023-03-02T12:25:38.593Z,17.20
2023-03-02T12:28:06.441Z,16.20
2023-03-02T12:30:34.158Z,15.93
2023-03-02T12:33:21.282Z,17.27
2023-03-02T12:35:56.208Z,17.05
2023-03-02T12:38:30.971Z,17.13
2023-03-02T12:41:27.543Z,17.25
2023-03-02T12:46:35.171Z,14.88
2023-03-02T12:49:22.699Z,16.30
2023-03-02T12:51:55.899Z,13.88
2023-03-02T12:54:25.592Z,15.25
2023-03-02T12:57:06.251Z,13.13
2023-03-02T12:59:34.147Z,14.18
2023-03-02T13:02:23.618Z,13.40
2023-03-02T13:04:57.415Z,13.95
2023-03-02T13:07:28.412Z,14.65
2023-03-02T13:09:59.180Z,12.77
2023-03-02T13:12:29.411Z,13.43
2023-03-02T13:14:59.174Z,14.35
2023-03-02T13:17:30.871Z,13.05
2023-03-02T13:20:02.622Z,13.20
2023-03-02T13:22:30.924Z,13.02
2023-03-02T13:25:00.463Z,12.68
2023-03-02T13:27:29.140Z,12.68
2023-03-02T13:29:57.388Z,12.68
2023-03-02T13:32:26.859Z,11.95
2023-03-02T13:34:56.791Z,12.75
2023-03-02T13:37:37.637Z,19.23
2023-03-02T13:40:09.049Z,19.65
2023-03-02T13:42:39.499Z,20.40
2023-03-02T13:45:23.285Z,19.42
2023-03-02T13:47:53.979Z,18.48
2023-03-02T13:50:24.376Z,19.38
2023-03-02T13:52:56.033Z,18.92
2023-03-02T13:55:24.562Z,19.05
2023-03-02T13:57:54.372Z,19.63
2023-03-02T14:00:32.532Z,19.70
2023-03-02T14:03:00.335Z,20.60
2023-03-02T14:05:33.331Z,20.35
2023-03-02T14:08:03.581Z,20.20
2023-03-02T14:10:31.403Z,22.00
2023-03-02T14:13:02.751Z,21.33
2023-03-02T14:15:30.591Z,22.45
2023-03-02T14:17:58.395Z,21.10
2023-03-02T14:20:26.119Z,23.02
2023-03-02T14:22:53.835Z,22.33
2023-03-02T14:25:23.013Z,22.50
2023-03-02T14:27:50.829Z,22.80
2023-03-02T14:30:20.673Z,22.85
2023-03-02T14:32:51.177Z,23.25
2023-03-02T14:35:19.091Z,22.65
2023-03-02T14:37:49.270Z,24.73
2023-03-02T14:40:22.421Z,22.45
2023-03-02T14:42:52.098Z,23.50
2023-03-02T14:45:20.443Z,21.42
2023-03-02T14:47:50.338Z,22.80
2023-03-02T14:50:18.388Z,23.25
2023-03-02T14:52:50.663Z,24.17
2023-03-02T14:55:25.726Z,24.48
2023-03-02T14:57:57.187Z,23.58
2023-03-02T15:00:25.862Z,24.30
2023-03-02T15:02:53.670Z,25.23
2023-03-02T15:05:21.829Z,26.25
2023-03-02T15:07:50.389Z,25.08
2023-03-02T15:10:20.947Z,25.58
2023-03-02T15:12:48.904Z,25.88
2023-03-02T15:15:18.607Z,26.13
2023-03-02T15:17:46.478Z,26.42
2023-03-02T15:20:16.397Z,25.98
2023-03-02T15:22:44.306Z,26.48
2023-03-02T15:25:12.550Z,27.80
2023-03-02T15:27:41.539Z,27.92
2023-03-02T15:30:12.162Z,27.23
2023-03-02T15:32:41.360Z,27.50
2023-03-02T15:35:09.731Z,27.25
2023-03-02T15:37:37.413Z,28.40
2023-03-02T15:40:06.300Z,28.35
2023-03-02T15:42:34.053Z,29.30
2023-03-02T15:45:01.821Z,27.38
2023-03-02T15:47:29.667Z,28.63
2023-03-02T15:49:58.741Z,28.60
2023-03-02T15:52:26.776Z,29.20
2023-03-02T15:54:54.511Z,30.33
2023-03-02T15:57:22.204Z,30.00
2023-03-02T15:59:49.933Z,30.48
2023-03-02T16:02:17.995Z,28.98
2023-03-02T16:04:45.919Z,29.92
2023-03-02T16:07:14.977Z,30.77
2023-03-02T16:09:45.253Z,31.77
2023-03-02T16:12:12.979Z,30.27
2023-03-02T16:14:40.804Z,31.15
2023-03-02T16:17:08.514Z,30.95
2023-03-02T16:19:37.698Z,29.45
2023-03-02T16:22:05.696Z,30.70
2023-03-02T16:24:34.753Z,29.92
2023-03-02T16:27:02.479Z,29.88
2023-03-02T16:29:31.072Z,30.25
2023-03-02T16:31:58.912Z,29.35
2023-03-02T16:34:26.804Z,29.20
2023-03-02T16:36:54.561Z,31.38
2023-03-02T16:39:22.479Z,31.15
2023-03-02T16:41:51.594Z,30.08
2023-03-02T16:44:20.048Z,32.65
2023-03-02T16:46:51.337Z,31.10
2023-03-02T16:49:19.092Z,31.80
2023-03-02T16:51:49.141Z,33.25
2023-03-02T16:54:18.588Z,30.73
2023-03-02T16:56:47.407Z,32.95
2023-03-02T16:59:16.855Z,34.10
2023-03-02T17:01:44.844Z,33.72
2023-03-02T17:04:18.304Z,31.73
2023-03-02T17:07:02.278Z,34.08
2023-03-02T17:09:30.268Z,33.20
2023-03-02T17:11:58.465Z,32.60
2023-03-02T17:14:30.303Z,33.67
2023-03-02T17:16:58.290Z,33.17
2023-03-02T17:19:26.910Z,33.67
2023-03-02T17:21:57.487Z,34.92
2023-03-02T17:24:25.233Z,35.08
2023-03-02T17:26:52.995Z,36.10
2023-03-02T17:29:20.821Z,34.90
2023-03-02T17:31:50.091Z,34.58
2023-03-02T17:34:17.808Z,35.35
2023-03-02T17:36:45.639Z,34.17
2023-03-02T17:39:13.378Z,35.35
2023-03-02T17:41:41.206Z,34.67
2023-03-02T17:44:08.989Z,34.38
2023-03-02T17:46:36.798Z,35.58
2023-03-02T17:49:05.930Z,37.33
2023-03-02T17:51:33.639Z,35.47
2023-03-02T17:54:01.439Z,36.40
2023-03-02T17:56:30.074Z,35.33
2023-03-02T17:59:02.918Z,34.15
2023-03-02T18:01:36.005Z,36.20
2023-03-02T18:04:05.527Z,37.17
2023-03-02T18:06:33.699Z,36.20
2023-03-02T18:09:01.503Z,36.55
2023-03-02T18:11:29.597Z,38.47
2023-03-02T18:13:58.043Z,36.83
2023-03-02T18:16:28.182Z,36.38
2023-03-02T18:18:56.264Z,35.22
2023-03-02T18:21:25.499Z,38.22
2023-03-02T18:23:54.999Z,35.45
2023-03-02T18:26:22.790Z,35.05
2023-03-02T18:28:50.703Z,35.08
2023-03-02T18:31:19.417Z,37.10
2023-03-02T18:33:47.557Z,36.05
2023-03-02T18:36:20.878Z,35.08
2023-03-02T18:38:53.010Z,36.08
2023-03-02T18:41:21.117Z,36.80
2023-03-02T18:43:49.149Z,38.45
2023-03-02T18:46:19.997Z,36.35
2023-03-02T18:48:49.464Z,35.63
2023-03-02T18:51:17.723Z,36.33
2023-03-02T18:53:46.770Z,36.78
2023-03-02T18:56:19.684Z,36.55
2023-03-02T18:58:48.508Z,37.05
2023-03-02T19:01:17.006Z,37.42
2023-03-02T19:03:45.759Z,36.33
2023-03-02T19:06:14.197Z,35.42
2023-03-02T19:08:42.146Z,35.15
2023-03-02T19:11:10.109Z,35.45
2023-03-02T19:13:39.214Z,37.22
2023-03-02T19:16:07.904Z,39.80
2023-03-02T19:18:35.706Z,37.78
2023-03-02T19:21:04.940Z,36.10
2023-03-02T19:23:33.326Z,37.78
2023-03-02T19:26:01.690Z,36.60
2023-03-02T19:28:32.393Z,36.50
2023-03-02T19:31:04.008Z,34.78
2023-03-02T19:33:31.750Z,35.55
2023-03-02T19:35:59.603Z,38.13
2023-03-02T19:38:29.297Z,37.15
2023-03-02T19:40:58.419Z,38.03
2023-03-02T19:43:26.723Z,37.95
2023-03-02T19:45:54.684Z,40.22
2023-03-02T19:48:26.495Z,38.05
2023-03-02T19:50:54.243Z,38.53
2023-03-02T19:53:22.036Z,36.45
2023-03-02T19:55:51.453Z,38.15
2023-03-02T19:58:19.888Z,36.00
2023-03-02T20:00:48.898Z,37.70
2023-03-02T20:03:16.687Z,38.97
2023-03-02T20:05:47.228Z,39.17
2023-03-02T20:08:16.726Z,38.88
2023-03-02T20:10:46.478Z,38.33
2023-03-02T20:13:17.584Z,37.55
2023-03-02T20:15:48.443Z,35.78
2023-03-02T20:18:19.751Z,36.95
2023-03-02T20:20:49.793Z,35.60
2023-03-02T20:23:17.600Z,36.47
2023-03-02T20:25:47.926Z,37.45
2023-03-02T20:28:18.568Z,36.65
2023-03-02T20:30:48.826Z,37.80
2023-03-02T20:33:16.739Z,37.33
2023-03-02T20:35:46.297Z,36.78
2023-03-02T20:38:21.927Z,37.33
2023-03-02T20:40:50.032Z,39.08
2023-03-02T20:43:18.535Z,36.97
2023-03-02T20:45:46.524Z,35.70
2023-03-02T20:48:14.732Z,36.28
2023-03-02T20:50:43.613Z,37.13
2023-03-02T20:53:12.593Z,35.83
2023-03-02T20:55:41.703Z,35.95
2023-03-02T20:58:10.029Z,37.42
2023-03-02T21:00:38.451Z,38.83
2023-03-02T21:03:07.012Z,37.25
2023-03-02T21:05:36.808Z,34.78
2023-03-02T21:08:04.893Z,37.10
2023-03-02T21:10:35.703Z,37.42
2023-03-02T21:13:07.595Z,36.40
2023-03-02T21:15:35.708Z,36.80
2023-03-02T21:18:03.547Z,36.80
2023-03-02T21:20:35.816Z,37.63
2023-03-02T21:23:04.266Z,37.00
2023-03-02T21:25:32.144Z,35.83
2023-03-02T21:28:02.271Z,36.60
2023-03-02T21:30:36.827Z,35.65
2023-03-02T21:33:04.797Z,34.28
2023-03-02T21:35:32.852Z,37.00
2023-03-02T21:38:04.730Z,36.35
2023-03-02T21:40:34.821Z,36.40
2023-03-02T21:43:05.337Z,39.28
2023-03-02T21:45:35.687Z,38.70
2023-03-02T21:48:03.847Z,36.95
2023-03-02T21:50:33.782Z,37.75
2023-03-02T21:53:01.509Z,38.85
2023-03-02T21:55:30.483Z,39.33
2023-03-02T21:57:58.249Z,36.85
2023-03-02T22:00:32.462Z,37.40
2023-03-02T22:03:02.739Z,38.78
2023-03-02T22:05:32.898Z,36.15
2023-03-02T22:08:00.904Z,36.72
2023-03-02T22:10:32.612Z,39.10
2023-03-02T22:13:15.032Z,39.83
2023-03-02T22:15:42.774Z,37.92
2023-03-02T22:18:13.338Z,36.58
2023-03-02T22:20:43.852Z,40.30
2023-03-02T22:23:13.091Z,39.15
2023-03-02T22:25:40.910Z,40.45
2023-03-02T22:28:27.607Z,39.63
2023-03-02T22:31:01.017Z,42.20
2023-03-02T22:33:37.723Z,40.03
2023-03-02T22:36:15.245Z,37.75
2023-03-02T22:38:45.602Z,37.95
2023-03-02T22:41:15.575Z,38.63
2023-03-02T22:43:44.366Z,35.42
2023-03-02T22:46:15.830Z,36.53
2023-03-02T22:48:46.461Z,35.50
2023-03-02T22:51:17.084Z,36.80
2023-03-02T22:53:50.011Z,36.17
2023-03-02T23:00:40.306Z,34.00
2023-03-02T23:05:51.594Z,32.92
2023-03-02T23:08:22.827Z,32.60
2023-03-02T23:10:51.655Z,36.40
2023-03-02T23:13:25.107Z,32.47
2023-03-02T23:15:56.118Z,33.60
2023-03-02T23:18:27.056Z,34.00
2023-03-02T23:20:55.349Z,34.55
2023-03-02T23:23:27.279Z,32.65
2023-03-02T23:25:55.469Z,32.63
2023-03-02T23:28:23.574Z,32.58
2023-03-02T23:30:51.342Z,33.25
2023-03-02T23:33:20.430Z,34.78
2023-03-02T23:35:48.277Z,33.35
2023-03-02T23:38:16.040Z,32.25
2023-03-02T23:40:43.852Z,34.10
2023-03-02T23:43:11.589Z,31.95
2023-03-02T23:45:39.929Z,31.95
2023-03-02T23:48:08.044Z,32.25
2023-03-02T23:50:37.142Z,32.97
2023-03-02T23:53:06.573Z,33.45
2023-03-02T23:55:35.118Z,33.10
2023-03-02T23:58:02.886Z,30.45
